createdAt,value
2022-09-15T00:01:20.010Z,78.03
2022-09-15T00:03:48.788Z,77.89
2022-09-15T00:06:17.364Z,77.77
2022-09-15T00:08:45.073Z,77.54
2022-09-15T00:11:19.760Z,77.81
2022-09-15T00:13:47.524Z,77.86
2022-09-15T00:16:16.856Z,77.75
2022-09-15T00:18:45.397Z,78.01
2022-09-15T00:21:19.588Z,78.11
2022-09-15T00:23:48.414Z,77.86
2022-09-15T00:26:22.487Z,78.01
2022-09-15T00:28:51.363Z,78.30
2022-09-15T00:31:21.882Z,78.46
2022-09-15T00:33:52.417Z,78.37
2022-09-15T00:36:21.924Z,78.30
2022-09-15T00:38:50.339Z,78.53
2022-09-15T00:41:20.843Z,78.31
2022-09-15T00:44:04.595Z,78.53
2022-09-15T00:46:41.375Z,78.82
2022-09-15T00:49:23.761Z,78.38
2022-09-15T00:52:00.764Z,78.67
2022-09-15T00:54:37.762Z,78.80
2022-09-15T00:57:16.143Z,78.83
2022-09-15T00:59:44.515Z,78.65
2022-09-15T01:02:19.879Z,78.20
2022-09-15T01:04:48.175Z,78.61
2022-09-15T01:07:21.631Z,79.09
2022-09-15T01:09:57.271Z,78.96
2022-09-15T01:12:26.116Z,79.13
2022-09-15T01:14:55.159Z,79.05
2022-09-15T01:17:44.427Z,79.05
2022-09-15T01:20:33.894Z,79.10
2022-09-15T01:23:31.163Z,79.30
2022-09-15T01:26:07.619Z,79.35
2022-09-15T01:28:50.324Z,79.44
2022-09-15T01:31:29.600Z,79.22
2022-09-15T01:34:09.491Z,79.64
2022-09-15T01:36:41.250Z,79.35
2022-09-15T01:39:37.595Z,78.83
2022-09-15T01:42:09.773Z,79.59
2022-09-15T01:44:52.415Z,79.10
2022-09-15T01:47:21.684Z,79.56
2022-09-15T01:50:01.349Z,79.55
2022-09-15T01:52:30.743Z,79.56
2022-09-15T01:55:02.407Z,79.62
2022-09-15T01:57:30.107Z,79.77
2022-09-15T01:59:57.900Z,79.48
2022-09-15T02:02:42.656Z,79.81
2022-09-15T02:05:26.215Z,79.86
2022-09-15T02:08:06.260Z,80.11
2022-09-15T02:11:12.947Z,80.19
2022-09-15T02:14:17.359Z,80.07
2022-09-15T02:16:50.179Z,80.32
2022-09-15T02:19:32.944Z,80.12
2022-09-15T02:22:10.744Z,80.12
2022-09-15T02:24:44.208Z,80.05
2022-09-15T02:27:17.935Z,80.24
2022-09-15T02:29:48.743Z,80.32
2022-09-15T02:32:19.428Z,80.27
2022-09-15T02:34:51.772Z,80.63
2022-09-15T02:37:21.592Z,80.24
2022-09-15T02:39:55.048Z,80.34
2022-09-15T02:42:28.092Z,80.43
2022-09-15T02:44:56.477Z,80.48
2022-09-15T02:47:24.513Z,80.70
2022-09-15T02:49:52.179Z,80.40
2022-09-15T02:52:20.244Z,80.89
2022-09-15T02:54:48.250Z,80.67
2022-09-15T02:57:16.589Z,80.51
2022-09-15T03:00:02.908Z,81.00
2022-09-15T03:02:31.277Z,80.76
2022-09-15T03:04:59.133Z,81.03
2022-09-15T03:07:28.567Z,81.00
2022-09-15T03:09:56.412Z,80.72
2022-09-15T03:12:25.093Z,80.86
2022-09-15T03:14:52.722Z,80.96
2022-09-15T03:17:20.424Z,81.23
2022-09-15T03:19:48.092Z,81.16
2022-09-15T03:22:15.857Z,81.08
2022-09-15T03:24:43.925Z,81.39
2022-09-15T03:27:11.581Z,81.22
2022-09-15T03:29:39.428Z,81.21
2022-09-15T03:32:07.059Z,81.15
2022-09-15T03:34:34.721Z,81.35
2022-09-15T03:37:02.509Z,81.51
2022-09-15T03:39:30.508Z,81.49
2022-09-15T03:41:58.257Z,81.30
2022-09-15T03:44:26.105Z,81.29
2022-09-15T03:46:53.805Z,81.43
2022-09-15T03:49:21.588Z,81.70
2022-09-15T03:51:49.396Z,81.65
2022-09-15T03:54:17.933Z,81.52
2022-09-15T03:56:49.112Z,81.56
2022-09-15T03:59:19.032Z,81.73
2022-09-15T04:01:48.234Z,82.19
2022-09-15T04:04:16.920Z,82.01
2022-09-15T04:06:45.089Z,82.15
2022-09-15T04:09:12.874Z,82.00
2022-09-15T04:11:41.043Z,82.16
2022-09-15T04:14:08.694Z,82.38
2022-09-15T04:16:36.556Z,82.31
2022-09-15T04:19:05.045Z,82.14
2022-09-15T04:21:32.793Z,82.11
2022-09-15T04:24:00.555Z,82.23
2022-09-15T04:26:34.457Z,82.56
2022-09-15T04:29:04.848Z,82.30
2022-09-15T04:31:34.240Z,82.32
2022-09-15T04:34:02.570Z,82.23
2022-09-15T04:36:31.460Z,82.36
2022-09-15T04:38:59.424Z,82.04
2022-09-15T04:41:27.902Z,82.36
2022-09-15T04:43:55.706Z,82.29
2022-09-15T04:46:23.567Z,82.41
2022-09-15T04:48:52.226Z,82.73
2022-09-15T04:51:22.240Z,82.61
2022-09-15T04:53:50.471Z,82.42
2022-09-15T04:56:21.654Z,82.43
2022-09-15T04:59:03.808Z,82.67
2022-09-15T05:01:35.614Z,82.72
2022-09-15T05:04:04.614Z,82.80
2022-09-15T05:06:34.938Z,82.57
2022-09-15T05:09:09.820Z,82.72
2022-09-15T05:11:38.741Z,82.75
2022-09-15T05:14:06.795Z,82.64
2022-09-15T05:16:34.549Z,82.64
2022-09-15T05:19:05.618Z,82.58
2022-09-15T05:21:33.998Z,82.85
2022-09-15T05:24:02.374Z,83.01
2022-09-15T05:26:30.279Z,82.88
2022-09-15T05:28:58.306Z,82.74
2022-09-15T05:31:29.208Z,82.76
2022-09-15T05:33:57.577Z,82.92
2022-09-15T05:36:25.717Z,82.90
2022-09-15T05:38:56.610Z,83.14
2022-09-15T05:41:26.955Z,82.93
2022-09-15T05:43:59.863Z,82.95
2022-09-15T05:46:29.385Z,83.33
2022-09-15T05:48:58.540Z,83.11
2022-09-15T05:51:26.486Z,83.30
2022-09-15T05:53:54.181Z,83.27
2022-09-15T05:56:22.452Z,83.23
2022-09-15T05:58:50.187Z,83.26
2022-09-15T06:01:21.184Z,83.56
2022-09-15T06:03:49.799Z,83.22
2022-09-15T06:06:17.829Z,83.38
2022-09-15T06:08:52.777Z,83.48
2022-09-15T06:11:26.231Z,83.15
2022-09-15T06:13:54.599Z,83.22
2022-09-15T06:16:24.581Z,83.33
2022-09-15T06:18:53.588Z,83.35
2022-09-15T06:21:27.534Z,83.49
2022-09-15T06:23:57.177Z,83.26
2022-09-15T06:26:26.302Z,83.19
2022-09-15T06:28:56.619Z,83.37
2022-09-15T06:31:26.421Z,83.33
2022-09-15T06:33:56.129Z,83.47
2022-09-15T06:36:27.463Z,83.25
2022-09-15T06:38:55.742Z,83.23
2022-09-15T06:41:23.603Z,83.25
2022-09-15T06:43:52.208Z,83.05
2022-09-15T06:46:23.940Z,82.87
2022-09-15T06:48:53.516Z,82.83
2022-09-15T06:51:24.635Z,82.98
2022-09-15T06:53:53.595Z,82.97
2022-09-15T06:56:23.351Z,82.75
2022-09-15T06:58:51.739Z,82.81
2022-09-15T07:01:29.948Z,82.65
2022-09-15T07:03:59.369Z,82.66
2022-09-15T07:06:31.973Z,82.34
2022-09-15T07:09:00.633Z,82.29
2022-09-15T07:11:30.740Z,82.36
2022-09-15T07:13:59.282Z,81.89
2022-09-15T07:16:27.309Z,82.12
2022-09-15T07:18:57.186Z,81.97
2022-09-15T07:21:24.900Z,81.75
2022-09-15T07:23:52.831Z,81.54
2022-09-15T07:26:24.029Z,81.29
2022-09-15T07:28:55.670Z,81.17
2022-09-15T07:31:25.792Z,80.93
2022-09-15T07:33:53.945Z,81.14
2022-09-15T07:36:22.744Z,80.97
2022-09-15T07:38:52.311Z,80.36
2022-09-15T07:41:25.748Z,80.56
2022-09-15T07:43:56.676Z,80.23
2022-09-15T07:46:27.024Z,80.00
2022-09-15T07:48:58.773Z,79.71
2022-09-15T07:51:27.308Z,79.62
2022-09-15T07:53:55.939Z,79.36
2022-09-15T07:56:24.889Z,79.36
2022-09-15T07:58:54.196Z,79.42
2022-09-15T08:01:23.272Z,79.31
2022-09-15T08:03:53.992Z,79.08
2022-09-15T08:06:24.919Z,78.84
2022-09-15T08:08:59.260Z,78.89
2022-09-15T08:11:28.990Z,78.64
2022-09-15T08:13:57.589Z,78.37
2022-09-15T08:16:27.207Z,77.62
2022-09-15T08:18:56.337Z,77.27
2022-09-15T08:21:24.843Z,76.72
2022-09-15T08:23:58.423Z,76.95
2022-09-15T08:26:29.097Z,76.64
2022-09-15T08:28:58.190Z,76.39
2022-09-15T08:31:26.412Z,75.20
2022-09-15T08:33:56.341Z,74.16
2022-09-15T08:36:28.179Z,74.95
2022-09-15T08:38:57.497Z,74.62
2022-09-15T08:41:49.488Z,73.93
2022-09-15T08:44:41.396Z,71.24
2022-09-15T08:47:19.517Z,71.25
2022-09-15T08:50:02.507Z,72.03
2022-09-15T08:52:48.467Z,70.97
2022-09-15T08:55:57.068Z,70.33
2022-09-15T08:58:34.760Z,70.01
2022-09-15T09:01:12.199Z,69.32
2022-09-15T09:03:49.435Z,69.22
2022-09-15T09:06:45.792Z,68.11
2022-09-15T09:09:38.236Z,68.08
2022-09-15T09:12:41.218Z,68.19
2022-09-15T09:15:27.968Z,67.55
2022-09-15T09:17:58.354Z,67.04
2022-09-15T09:20:52.696Z,66.79
2022-09-15T09:23:27.869Z,66.14
2022-09-15T09:25:57.481Z,66.01
2022-09-15T09:28:53.109Z,66.04
2022-09-15T09:31:23.383Z,65.36
2022-09-15T09:33:53.566Z,65.14
2022-09-15T09:36:22.005Z,65.04
2022-09-15T09:38:50.915Z,63.50
2022-09-15T09:41:26.144Z,63.54
2022-09-15T09:43:56.553Z,63.12
2022-09-15T09:46:24.384Z,62.80
2022-09-15T09:49:02.984Z,62.58
2022-09-15T09:51:55.683Z,62.51
2022-09-15T09:54:27.355Z,62.27
2022-09-15T09:56:57.564Z,61.92
2022-09-15T09:59:41.820Z,62.14
2022-09-15T10:02:12.355Z,59.94
2022-09-15T10:04:42.505Z,60.85
2022-09-15T10:07:13.089Z,60.15
2022-09-15T10:09:49.982Z,59.91
2022-09-15T10:12:40.085Z,59.93
2022-09-15T10:15:27.264Z,60.22
2022-09-15T10:17:56.590Z,60.13
2022-09-15T10:20:46.805Z,59.66
2022-09-15T10:23:18.015Z,59.94
2022-09-15T10:26:01.620Z,59.05
2022-09-15T10:28:29.497Z,58.39
2022-09-15T10:31:13.688Z,58.32
2022-09-15T10:33:46.194Z,58.35
2022-09-15T10:36:17.905Z,57.93
2022-09-15T10:38:54.698Z,57.33
2022-09-15T10:41:29.183Z,56.88
2022-09-15T10:44:25.095Z,56.71
2022-09-15T10:47:14.881Z,56.72
2022-09-15T10:50:10.397Z,57.24
2022-09-15T10:53:00.985Z,57.15
2022-09-15T10:55:52.654Z,56.81
2022-09-15T10:58:38.961Z,56.84
2022-09-15T11:01:30.223Z,56.81
2022-09-15T11:04:11.164Z,56.64
2022-09-15T11:06:59.353Z,56.71
2022-09-15T11:09:51.329Z,55.45
2022-09-15T11:12:55.533Z,55.34
2022-09-15T11:15:41.321Z,55.59
2022-09-15T11:18:36.801Z,55.77
2022-09-15T11:21:14.074Z,56.16
2022-09-15T11:24:06.283Z,56.49
2022-09-15T11:26:41.314Z,56.59
2022-09-15T11:29:17.505Z,55.73
2022-09-15T11:31:48.024Z,55.77
2022-09-15T11:34:26.559Z,56.27
2022-09-15T11:37:03.997Z,56.06
2022-09-15T11:40:22.575Z,56.17
2022-09-15T11:42:57.839Z,56.14
2022-09-15T11:45:27.541Z,56.18
2022-09-15T11:48:28.991Z,56.35
2022-09-15T11:51:01.829Z,56.43
2022-09-15T11:53:50.690Z,55.92
2022-09-15T11:56:41.062Z,56.03
2022-09-15T11:59:37.149Z,56.22
2022-09-15T12:02:22.769Z,56.15
2022-09-15T12:05:15.015Z,56.28
2022-09-15T12:08:04.881Z,55.37
2022-09-15T12:10:43.548Z,55.40
2022-09-15T12:13:16.914Z,55.30
2022-09-15T12:15:46.758Z,55.35
2022-09-15T12:18:49.539Z,55.18
2022-09-15T12:21:45.509Z,55.36
2022-09-15T12:24:13.653Z,55.35
2022-09-15T12:26:43.698Z,55.22
2022-09-15T12:29:42.426Z,55.44
2022-09-15T12:32:16.986Z,55.66
2022-09-15T12:35:03.951Z,55.90
2022-09-15T12:37:38.078Z,56.13
2022-09-15T12:40:08.196Z,56.16
2022-09-15T12:42:37.210Z,55.87
2022-09-15T12:45:19.974Z,55.43
2022-09-15T12:48:01.025Z,55.19
2022-09-15T12:50:35.635Z,55.40
2022-09-15T12:53:21.523Z,55.46
2022-09-15T12:56:02.749Z,55.23
2022-09-15T12:58:38.687Z,55.33
2022-09-15T13:01:19.015Z,55.46
2022-09-15T13:03:49.029Z,55.61
2022-09-15T13:06:17.303Z,55.72
2022-09-15T13:08:46.814Z,55.91
2022-09-15T13:11:37.455Z,56.18
2022-09-15T13:14:08.224Z,56.20
2022-09-15T13:16:43.890Z,56.20
2022-09-15T13:19:28.083Z,56.38
2022-09-15T13:21:58.979Z,56.33
2022-09-15T13:24:49.878Z,56.47
2022-09-15T13:27:25.630Z,56.35
2022-09-15T13:30:03.107Z,56.58
2022-09-15T13:32:48.704Z,56.42
2022-09-15T13:35:31.842Z,56.48
2022-09-15T13:38:33.846Z,56.64
2022-09-15T13:41:07.703Z,56.50
2022-09-15T13:43:47.646Z,56.19
2022-09-15T13:46:18.565Z,55.92
2022-09-15T13:48:55.957Z,55.73
2022-09-15T13:51:26.847Z,55.61
2022-09-15T13:54:03.683Z,55.59
2022-09-15T13:56:53.390Z,55.57
2022-09-15T13:59:27.354Z,55.67
2022-09-15T14:01:57.021Z,56.04
2022-09-15T14:04:29.137Z,55.97
2022-09-15T14:07:01.077Z,56.02
2022-09-15T14:09:43.156Z,56.22
2022-09-15T14:12:13.527Z,55.68
2022-09-15T14:14:46.162Z,55.70
2022-09-15T14:17:24.323Z,55.78
2022-09-15T14:19:54.844Z,55.85
2022-09-15T14:22:29.061Z,55.84
2022-09-15T14:24:58.169Z,55.96
2022-09-15T14:27:29.077Z,56.26
2022-09-15T14:29:58.401Z,56.33
2022-09-15T14:32:28.247Z,56.39
2022-09-15T14:35:04.098Z,56.43
2022-09-15T14:37:32.631Z,56.50
2022-09-15T14:40:03.359Z,56.42
2022-09-15T14:42:36.191Z,56.43
2022-09-15T14:48:00.228Z,56.64
2022-09-15T14:50:32.986Z,56.78
2022-09-15T14:53:10.329Z,56.69
2022-09-15T14:55:47.297Z,56.91
2022-09-15T14:58:30.116Z,57.01
2022-09-15T15:01:10.246Z,56.94
2022-09-15T15:04:10.082Z,57.06
2022-09-15T15:06:44.490Z,57.19
2022-09-15T15:09:21.799Z,57.20
2022-09-15T15:11:58.809Z,57.25
2022-09-15T15:14:26.753Z,57.28
2022-09-15T15:17:34.070Z,57.23
2022-09-15T15:20:10.603Z,57.43
2022-09-15T15:22:40.023Z,57.48
2022-09-15T15:25:30.089Z,57.75
2022-09-15T15:27:59.881Z,57.93
2022-09-15T15:30:30.998Z,57.97
2022-09-15T15:33:27.526Z,58.05
2022-09-15T15:36:09.871Z,58.32
2022-09-15T15:38:51.988Z,58.35
2022-09-15T15:41:25.866Z,58.56
2022-09-15T15:44:17.595Z,58.57
2022-09-15T15:47:23.256Z,58.79
2022-09-15T15:50:12.383Z,58.97
2022-09-15T15:52:42.189Z,59.05
2022-09-15T15:55:14.201Z,59.19
2022-09-15T15:57:42.292Z,59.07
2022-09-15T16:00:31.747Z,59.28
2022-09-15T16:02:59.493Z,59.51
2022-09-15T16:05:29.609Z,59.60
2022-09-15T16:08:02.098Z,59.64
2022-09-15T16:10:37.248Z,59.80
2022-09-15T16:13:04.753Z,59.87
2022-09-15T16:15:32.469Z,60.08
2022-09-15T16:18:00.926Z,60.07
2022-09-15T16:20:29.249Z,60.06
2022-09-15T16:22:57.424Z,60.23
2022-09-15T16:25:34.402Z,60.30
2022-09-15T16:28:02.914Z,60.35
2022-09-15T16:30:31.698Z,60.43
2022-09-15T16:33:00.133Z,60.67
2022-09-15T16:35:46.246Z,60.68
2022-09-15T16:38:13.926Z,60.91
2022-09-15T16:40:41.610Z,61.01
2022-09-15T16:43:13.926Z,61.01
2022-09-15T16:45:42.540Z,61.19
2022-09-15T16:48:11.641Z,61.10
2022-09-15T16:50:50.289Z,61.35
2022-09-15T16:53:30.967Z,61.49
2022-09-15T16:55:58.807Z,61.61
2022-09-15T16:58:26.674Z,61.78
2022-09-15T17:00:56.066Z,61.91
2022-09-15T17:03:26.016Z,61.95
2022-09-15T17:05:56.045Z,62.05
2022-09-15T17:08:27.380Z,62.25
2022-09-15T17:11:01.463Z,62.30
2022-09-15T17:13:31.387Z,62.58
2022-09-15T17:16:01.087Z,62.61
2022-09-15T17:18:29.506Z,62.75
2022-09-15T17:20:57.773Z,63.08
2022-09-15T17:23:34.697Z,63.13
2022-09-15T17:26:05.227Z,63.30
2022-09-15T17:28:36.698Z,63.37
2022-09-15T17:31:07.408Z,63.57
2022-09-15T17:33:35.174Z,63.60
2022-09-15T17:36:03.089Z,63.77
2022-09-15T17:38:32.151Z,63.91
2022-09-15T17:40:59.949Z,64.10
2022-09-15T17:43:30.049Z,64.30
2022-09-15T17:45:58.315Z,64.37
2022-09-15T17:48:26.204Z,64.51
2022-09-15T17:50:53.935Z,64.74
2022-09-15T17:53:26.707Z,64.91
2022-09-15T17:55:56.140Z,64.82
2022-09-15T17:58:29.971Z,65.09
2022-09-15T18:00:58.439Z,65.19
2022-09-15T18:03:30.859Z,65.22
2022-09-15T18:06:00.479Z,65.46
2022-09-15T18:08:28.959Z,65.52
2022-09-15T18:10:56.699Z,65.51
2022-09-15T18:13:29.818Z,65.65
2022-09-15T18:16:02.782Z,65.84
2022-09-15T18:18:30.667Z,66.14
2022-09-15T18:20:58.664Z,66.02
2022-09-15T18:23:29.429Z,66.21
2022-09-15T18:25:57.642Z,66.21
2022-09-15T18:28:25.473Z,66.42
2022-09-15T18:30:53.221Z,66.43
2022-09-15T18:33:23.533Z,66.61
2022-09-15T18:35:56.244Z,66.73
2022-09-15T18:38:24.340Z,66.81
2022-09-15T18:40:55.402Z,66.80
2022-09-15T18:43:26.746Z,67.07
2022-09-15T18:46:01.668Z,67.02
2022-09-15T18:48:31.377Z,67.24
2022-09-15T18:50:59.100Z,67.40
2022-09-15T18:53:27.409Z,67.65
2022-09-15T18:55:55.168Z,67.61
2022-09-15T18:58:22.891Z,67.77
2022-09-15T19:00:50.640Z,67.67
2022-09-15T19:03:18.471Z,67.88
2022-09-15T19:05:46.230Z,67.95
2022-09-15T19:08:13.983Z,68.12
2022-09-15T19:10:44.287Z,68.17
2022-09-15T19:13:14.327Z,68.10
2022-09-15T19:15:44.028Z,68.26
2022-09-15T19:18:12.173Z,68.35
2022-09-15T19:20:40.603Z,68.41
2022-09-15T19:23:09.424Z,68.54
2022-09-15T19:25:37.186Z,68.42
2022-09-15T19:28:05.202Z,68.52
2022-09-15T19:30:33.126Z,68.72
2022-09-15T19:33:04.105Z,68.90
2022-09-15T19:35:31.870Z,69.05
2022-09-15T19:37:59.590Z,69.11
2022-09-15T19:40:27.420Z,69.14
2022-09-15T19:42:55.153Z,69.20
2022-09-15T19:45:23.033Z,69.31
2022-09-15T19:47:50.746Z,69.46
2022-09-15T19:50:18.553Z,69.45
2022-09-15T19:52:46.621Z,69.36
2022-09-15T19:55:14.415Z,69.41
2022-09-15T19:57:42.876Z,69.48
2022-09-15T20:00:14.401Z,69.47
2022-09-15T20:02:42.248Z,69.46
2022-09-15T20:07:55.006Z,69.95
2022-09-15T20:10:22.674Z,69.90
2022-09-15T20:12:50.364Z,69.96
2022-09-15T20:15:18.196Z,69.91
2022-09-15T20:17:45.961Z,69.88
2022-09-15T20:20:13.931Z,69.87
2022-09-15T20:22:41.608Z,69.90
2022-09-15T20:25:09.280Z,69.89
2022-09-15T20:27:37.132Z,70.06
2022-09-15T20:30:22.218Z,70.01
2022-09-15T20:32:50.049Z,70.05
2022-09-15T20:35:17.833Z,69.99
2022-09-15T20:37:45.580Z,70.08
2022-09-15T20:40:13.498Z,70.13
2022-09-15T20:42:41.626Z,70.24
2022-09-15T20:45:10.391Z,70.34
2022-09-15T20:47:38.632Z,70.13
2022-09-15T20:50:06.898Z,70.55
2022-09-15T20:52:38.278Z,70.31
2022-09-15T20:55:07.137Z,70.30
2022-09-15T20:57:34.882Z,70.49
2022-09-15T21:00:05.098Z,70.66
2022-09-15T21:02:33.094Z,70.68
2022-09-15T21:05:00.827Z,70.60
2022-09-15T21:07:28.569Z,70.90
2022-09-15T21:09:56.228Z,70.77
2022-09-15T21:12:23.897Z,70.67
2022-09-15T21:14:51.855Z,70.88
2022-09-15T21:17:20.056Z,70.69
2022-09-15T21:19:47.674Z,71.26
2022-09-15T21:22:15.309Z,71.06
2022-09-15T21:24:43.014Z,70.91
2022-09-15T21:27:30.129Z,71.11
2022-09-15T21:29:59.003Z,71.23
2022-09-15T21:32:26.791Z,71.27
2022-09-15T21:34:56.079Z,71.64
2022-09-15T21:37:27.224Z,71.37
2022-09-15T21:39:55.041Z,71.92
2022-09-15T21:42:22.968Z,71.85
2022-09-15T21:44:51.350Z,71.97
2022-09-15T21:47:21.877Z,71.71
2022-09-15T21:49:51.811Z,71.99
2022-09-15T21:52:19.474Z,72.18
2022-09-15T21:54:47.222Z,72.23
2022-09-15T21:57:15.494Z,71.98
2022-09-15T21:59:43.153Z,72.55
2022-09-15T22:02:11.715Z,72.36
2022-09-15T22:04:39.787Z,72.62
2022-09-15T22:07:07.858Z,72.54
2022-09-15T22:09:35.823Z,72.23
2022-09-15T22:12:03.586Z,72.56
2022-09-15T22:14:31.323Z,72.38
2022-09-15T22:16:59.112Z,72.76
2022-09-15T22:19:26.834Z,72.58
2022-09-15T22:21:54.477Z,73.03
2022-09-15T22:24:22.211Z,73.14
2022-09-15T22:26:50.190Z,73.07
2022-09-15T22:29:17.932Z,72.91
2022-09-15T22:31:45.745Z,72.97
2022-09-15T22:34:13.563Z,73.12
2022-09-15T22:36:41.315Z,73.13
2022-09-15T22:39:11.574Z,73.56
2022-09-15T22:41:39.979Z,73.40
2022-09-15T22:44:17.831Z,73.00
2022-09-15T22:46:46.135Z,73.18
2022-09-15T22:49:14.316Z,73.21
2022-09-15T22:51:42.174Z,73.57
2022-09-15T22:54:09.938Z,73.52
2022-09-15T22:56:37.765Z,73.62
2022-09-15T22:59:05.954Z,73.57
2022-09-15T23:01:33.809Z,73.74
2022-09-15T23:04:02.531Z,73.88
2022-09-15T23:06:34.635Z,73.84
2022-09-15T23:09:06.348Z,73.71
2022-09-15T23:11:35.283Z,73.98
2022-09-15T23:14:03.613Z,74.02
2022-09-15T23:16:31.655Z,73.96
2022-09-15T23:19:00.926Z,74.07
2022-09-15T23:21:28.818Z,74.05
2022-09-15T23:23:57.218Z,74.11
2022-09-15T23:26:26.135Z,74.30
2022-09-15T23:28:54.327Z,74.19
2022-09-15T23:31:22.274Z,74.28
2022-09-15T23:33:49.983Z,74.34
2022-09-15T23:36:21.331Z,74.53
2022-09-15T23:38:50.068Z,74.54
2022-09-15T23:41:18.678Z,74.65
2022-09-15T23:43:47.406Z,74.64
2022-09-15T23:46:17.553Z,74.60
2022-09-15T23:48:45.345Z,74.70
2022-09-15T23:51:13.255Z,74.76
2022-09-15T23:53:40.976Z,75.08
2022-09-15T23:56:08.638Z,75.24
2022-09-15T23:58:36.534Z,75.11
